Time;durP1;ratioP1;P1;durP2;ratioP2;P2;SDS_P1;SDS_P2;PMS_P1;PMS_P2;Temp;Humidity;BMP_temperature;BMP_pressure;BME280_temperature;BME280_humidity;BME280_pressure;Samples;Min_cycle;Max_cycle;Signal;HPM_P1;HPM_P2
2022/10/14 00:01:11;;;;;;;456.55;41.47;;;11.20;99.90;;;;;;5072923;28;20446;-52
2022/10/14 00:03:38;;;;;;;391.65;39.45;;;11.30;99.90;;;;;;5073191;28;20102;-51
2022/10/14 00:06:12;;;;;;;450.85;42.00;;;11.20;99.90;;;;;;5072297;28;20040;-51
2022/10/14 00:08:39;;;;;;;338.70;35.03;;;11.20;99.90;;;;;;5073577;28;20105;-49
2022/10/14 00:11:11;;;;;;;457.85;42.15;;;11.20;99.90;;;;;;5072268;28;20078;-49
2022/10/14 00:13:37;;;;;;;356.25;34.38;;;11.40;99.90;;;;;;5073535;28;20455;-51
2022/10/14 00:16:04;;;;;;;347.75;33.42;;;11.30;99.90;;;;;;5071495;28;20086;-52
2022/10/14 00:18:31;;;;;;;357.50;34.85;;;13.10;99.90;;;;;;5087988;27;20040;-51
2022/10/14 00:20:59;;;;;;;389.25;35.38;;;13.10;99.90;;;;;;5074088;28;20040;-53
2022/10/14 00:23:26;;;;;;;384.60;39.92;;;11.50;99.90;;;;;;5074010;28;20047;-48
2022/10/14 00:25:52;;;;;;;389.98;38.92;;;10.90;99.90;;;;;;5072280;28;20039;-51
2022/10/14 00:28:18;;;;;;;624.47;52.50;;;11.90;99.90;;;;;;5072466;28;20370;-48
2022/10/14 00:30:58;;;;;;;286.48;34.60;;;10.40;99.90;;;;;;5072336;28;20048;-49
2022/10/14 00:33:24;;;;;;;286.52;34.30;;;11.80;99.90;;;;;;5073002;28;20043;-48
2022/10/14 00:36:11;;;;;;;327.35;34.90;;;11.10;99.90;;;;;;5071011;28;20153;-47
2022/10/14 00:38:37;;;;;;;300.65;32.33;;;11.00;99.90;;;;;;5071061;28;20060;-52
2022/10/14 00:41:04;;;;;;;436.70;39.45;;;11.20;99.90;;;;;;5070299;28;20171;-49
2022/10/14 00:43:54;;;;;;;300.90;33.15;;;11.00;99.90;;;;;;5071837;28;20044;-48
2022/10/14 00:46:20;;;;;;;310.80;34.15;;;11.00;99.90;;;;;;5071239;28;20450;-49
2022/10/14 00:48:46;;;;;;;450.95;38.92;;;12.60;99.90;;;;;;5070737;28;20028;-49
2022/10/14 00:51:12;;;;;;;189.15;26.02;;;10.80;99.90;;;;;;5069949;28;20523;-51
2022/10/14 00:53:41;;;;;;;170.85;26.42;;;10.90;99.90;;;;;;5070209;28;20040;-48
2022/10/14 00:56:09;;;;;;;402.85;38.97;;;10.80;99.90;;;;;;5072228;28;20052;-48
2022/10/14 00:58:36;;;;;;;284.67;32.92;;;12.40;99.90;;;;;;5072292;28;20147;-51
2022/10/14 01:01:02;;;;;;;390.60;37.85;;;11.90;99.90;;;;;;5071191;28;20052;-51
2022/10/14 01:03:28;;;;;;;404.70;39.90;;;11.30;99.90;;;;;;5070204;28;20436;-50
2022/10/14 01:06:08;;;;;;;280.33;33.58;;;10.90;99.90;;;;;;5071146;28;20135;-51
2022/10/14 01:08:59;;;;;;;330.98;34.40;;;10.90;99.90;;;;;;5070407;28;20151;-52
2022/10/14 01:11:57;;;;;;;268.83;33.08;;;10.90;99.90;;;;;;5069089;28;20159;-53
2022/10/14 01:14:26;;;;;;;352.25;31.10;;;10.90;99.90;;;;;;5040961;28;20087;-50
2022/10/14 01:16:59;;;;;;;401.02;28.73;;;12.20;99.90;;;;;;5070210;28;20082;-49
2022/10/14 01:19:46;;;;;;;390.70;31.30;;;10.70;99.90;;;;;;5071933;28;20074;-51
2022/10/14 01:22:18;;;;;;;332.50;31.35;;;10.80;99.90;;;;;;5071141;28;20077;-52
2022/10/14 01:24:54;;;;;;;317.13;30.63;;;10.90;99.90;;;;;;5072351;28;20479;-49
2022/10/14 01:27:48;;;;;;;259.15;27.23;;;11.40;99.90;;;;;;5072091;28;20622;-49
2022/10/14 01:30:21;;;;;;;385.05;32.25;;;10.70;99.90;;;;;;5069713;28;20032;-50
2022/10/14 01:33:08;;;;;;;402.15;27.02;;;10.70;99.90;;;;;;5071265;28;20052;-47
2022/10/14 01:35:56;;;;;;;372.08;29.63;;;10.50;99.90;;;;;;5070256;28;20043;-49
2022/10/14 01:38:34;;;;;;;296.88;26.02;;;10.70;99.90;;;;;;5071251;28;20040;-47
2022/10/14 01:41:07;;;;;;;234.95;23.17;;;9.10;99.90;;;;;;5071623;28;20446;-47
2022/10/14 01:43:34;;;;;;;356.25;25.10;;;10.50;99.90;;;;;;5069494;28;20071;-49
2022/10/14 01:46:03;;;;;;;330.88;30.17;;;11.00;99.90;;;;;;5070068;28;20464;-49
2022/10/14 01:48:33;;;;;;;244.93;22.92;;;10.40;99.90;;;;;;5070172;28;20091;-52
2022/10/14 01:51:01;;;;;;;255.73;21.05;;;8.90;99.90;;;;;;5068884;28;22038;-52
2022/10/14 01:53:38;;;;;;;233.48;23.20;;;12.20;99.90;;;;;;5069699;28;20051;-50
2022/10/14 01:56:06;;;;;;;234.05;23.48;;;10.90;99.90;;;;;;5070433;28;20374;-50
2022/10/14 01:58:33;;;;;;;281.42;23.10;;;10.30;99.90;;;;;;5070790;28;20045;-51
2022/10/14 02:01:02;;;;;;;307.10;27.13;;;10.60;99.90;;;;;;5069687;28;20106;-53
2022/10/14 02:03:40;;;;;;;382.38;28.95;;;10.40;99.90;;;;;;5072329;28;20043;-53
2022/10/14 02:06:11;;;;;;;177.18;16.73;;;10.80;99.90;;;;;;5070454;28;20040;-53
2022/10/14 02:09:05;;;;;;;337.85;23.88;;;12.50;99.90;;;;;;5069671;28;20089;-49
2022/10/14 02:11:47;;;;;;;325.00;23.67;;;10.30;99.90;;;;;;5067883;28;21170;-52
2022/10/14 02:14:50;;;;;;;268.15;23.98;;;10.40;99.90;;;;;;5068372;28;20036;-52
2022/10/14 02:17:22;;;;;;;146.68;16.25;;;10.40;99.90;;;;;;5069471;28;20074;-51
2022/10/14 02:19:53;;;;;;;;;;;10.30;99.90;;;;;;5071444;28;20054;-53
2022/10/14 02:22:37;;;;;;;217.63;17.83;;;10.10;99.90;;;;;;5070798;28;19932;-52
2022/10/14 02:25:15;;;;;;;231.30;21.25;;;10.30;99.90;;;;;;5068799;28;20337;-51
2022/10/14 02:27:44;;;;;;;214.13;20.20;;;11.20;99.90;;;;;;5069465;28;20044;-51
2022/10/14 02:30:11;;;;;;;242.43;21.92;;;10.10;99.90;;;;;;5070802;28;21107;-50
2022/10/14 02:32:39;;;;;;;293.65;22.58;;;8.90;99.90;;;;;;5071380;28;20051;-49
2022/10/14 02:35:06;;;;;;;171.75;17.00;;;11.60;99.90;;;;;;5068976;28;20044;-51
2022/10/14 02:37:33;;;;;;;206.35;19.25;;;10.10;99.90;;;;;;5068650;28;20039;-52
2022/10/14 02:40:23;;;;;;;188.20;20.08;;;11.50;99.90;;;;;;5068749;28;20550;-49
2022/10/14 02:42:49;;;;;;;281.83;25.98;;;10.20;99.90;;;;;;5070396;28;20334;-52
2022/10/14 02:45:15;;;;;;;322.95;25.05;;;10.90;99.90;;;;;;5071087;28;20579;-51
2022/10/14 02:47:41;;;;;;;171.52;22.80;;;10.30;99.90;;;;;;5070982;28;20416;-50
2022/10/14 02:50:08;;;;;;;258.17;27.00;;;11.00;99.90;;;;;;5070670;28;20050;-49
2022/10/14 02:52:34;;;;;;;192.38;20.70;;;10.20;99.90;;;;;;5070926;28;20036;-50
2022/10/14 02:54:59;;;;;;;270.17;21.95;;;10.30;99.90;;;;;;5071193;28;20096;-49
2022/10/14 02:57:25;;;;;;;226.73;21.02;;;10.10;99.90;;;;;;5069266;28;20040;-51
2022/10/14 02:59:51;;;;;;;276.08;23.55;;;9.90;99.90;;;;;;5069128;28;20579;-52
2022/10/14 03:02:16;;;;;;;252.82;24.75;;;10.40;99.90;;;;;;5071842;28;20052;-52
2022/10/14 03:04:42;;;;;;;224.02;22.98;;;10.10;99.90;;;;;;5071362;28;20238;-51
2022/10/14 03:07:08;;;;;;;238.95;24.58;;;9.90;99.90;;;;;;5069501;28;20039;-52
2022/10/14 03:09:34;;;;;;;313.90;27.83;;;10.90;99.90;;;;;;5068271;28;20048;-51
2022/10/14 03:11:59;;;;;;;192.25;23.48;;;9.90;99.90;;;;;;5069578;28;20051;-49
2022/10/14 03:14:25;;;;;;;280.38;28.00;;;10.70;99.90;;;;;;5068837;28;20052;-53
2022/10/14 03:16:51;;;;;;;242.05;24.05;;;11.30;99.90;;;;;;5068443;28;20577;-49
2022/10/14 03:19:16;;;;;;;257.95;24.77;;;9.90;99.90;;;;;;5069528;28;20174;-51
2022/10/14 03:21:42;;;;;;;265.98;25.02;;;11.20;99.90;;;;;;5069206;28;20044;-51
2022/10/14 03:24:08;;;;;;;124.55;18.75;;;10.00;99.90;;;;;;5071028;28;20390;-50
2022/10/14 03:26:34;;;;;;;227.75;23.88;;;10.00;99.90;;;;;;5072411;28;20529;-52
2022/10/14 03:29:00;;;;;;;154.30;21.85;;;10.80;99.90;;;;;;5074355;28;20047;-53
2022/10/14 03:31:26;;;;;;;163.65;21.73;;;11.70;99.90;;;;;;5073734;28;20051;-52
2022/10/14 03:33:52;;;;;;;242.80;24.58;;;11.00;99.90;;;;;;5074419;28;20072;-51
2022/10/14 03:36:18;;;;;;;129.85;19.52;;;10.90;99.90;;;;;;5073470;28;20417;-52
2022/10/14 03:38:43;;;;;;;222.55;22.40;;;9.90;99.90;;;;;;5073655;28;20546;-53
2022/10/14 03:41:09;;;;;;;106.93;17.10;;;9.90;99.90;;;;;;5070450;28;20665;-52
2022/10/14 03:43:35;;;;;;;122.68;20.00;;;10.00;99.90;;;;;;5070175;28;20054;-51
2022/10/14 03:46:01;;;;;;;90.38;14.93;;;9.80;99.90;;;;;;5071385;28;20100;-50
2022/10/14 03:48:26;;;;;;;118.93;17.88;;;10.10;99.90;;;;;;5073546;28;20043;-51
2022/10/14 03:50:52;;;;;;;194.98;23.48;;;9.70;99.90;;;;;;5071579;28;20040;-49
2022/10/14 03:53:18;;;;;;;151.30;20.40;;;9.70;99.90;;;;;;5070543;28;20059;-51
2022/10/14 03:55:44;;;;;;;216.05;22.80;;;9.80;99.90;;;;;;5072988;28;20044;-53
2022/10/14 03:58:11;;;;;;;197.48;17.88;;;9.80;99.90;;;;;;5073166;28;20044;-50
2022/10/14 04:00:36;;;;;;;209.63;20.23;;;10.40;99.90;;;;;;5072437;28;20114;-52
2022/10/14 04:03:02;;;;;;;280.52;19.90;;;10.30;99.90;;;;;;5075162;28;20036;-50
2022/10/14 04:05:32;;;;;;;139.48;16.20;;;9.80;99.90;;;;;;5074265;28;21358;-52
2022/10/14 04:07:59;;;;;;;199.32;18.38;;;10.40;99.90;;;;;;5074033;28;20044;-51
2022/10/14 04:10:25;;;;;;;236.27;21.30;;;9.70;99.90;;;;;;5074646;28;20032;-52
2022/10/14 04:12:52;;;;;;;141.60;16.92;;;9.60;99.90;;;;;;5073349;28;20110;-51
2022/10/14 04:15:18;;;;;;;105.38;15.95;;;10.30;99.90;;;;;;5073276;28;20366;-53
2022/10/14 04:17:44;;;;;;;140.80;18.10;;;9.80;99.90;;;;;;5073798;28;20040;-52
2022/10/14 04:20:10;;;;;;;142.23;17.15;;;11.60;99.90;;;;;;5071226;28;20551;-52
2022/10/14 04:22:36;;;;;;;134.93;19.33;;;9.90;99.90;;;;;;5071003;28;20040;-52
2022/10/14 04:25:02;;;;;;;184.48;19.63;;;10.20;99.90;;;;;;5070495;28;20040;-51
2022/10/14 04:27:28;;;;;;;163.63;18.45;;;9.70;99.90;;;;;;5071523;28;20036;-49
2022/10/14 04:29:54;;;;;;;297.48;22.92;;;11.10;99.90;;;;;;5073174;28;20044;-51
2022/10/14 04:32:20;;;;;;;81.00;15.25;;;11.20;99.90;;;;;;5072653;28;20040;-50
2022/10/14 04:34:45;;;;;;;125.05;17.83;;;9.70;99.90;;;;;;5072193;28;20040;-52
2022/10/14 04:37:11;;;;;;;232.85;24.48;;;9.70;99.90;;;;;;5072148;28;20073;-52
2022/10/14 04:39:37;;;;;;;260.65;24.75;;;9.80;99.90;;;;;;5071828;28;20143;-53
2022/10/14 04:42:03;;;;;;;168.68;20.27;;;9.70;99.90;;;;;;5070803;28;20052;-52
2022/10/14 04:44:28;;;;;;;122.72;16.88;;;9.60;99.90;;;;;;5071908;28;20115;-49
2022/10/14 04:46:54;;;;;;;149.88;19.42;;;9.70;99.90;;;;;;5071807;28;20047;-51
2022/10/14 04:49:20;;;;;;;127.25;18.75;;;9.60;99.90;;;;;;5069451;28;20052;-50
2022/10/14 04:51:45;;;;;;;302.17;24.15;;;9.70;99.90;;;;;;5069346;28;20040;-53
2022/10/14 04:54:11;;;;;;;161.25;20.02;;;9.70;99.90;;;;;;5069471;28;20074;-52
2022/10/14 04:56:37;;;;;;;200.40;20.95;;;10.40;99.90;;;;;;5071357;28;20690;-51
2022/10/14 04:59:03;;;;;;;310.00;27.02;;;9.60;99.90;;;;;;5069371;28;20040;-48
2022/10/14 05:01:29;;;;;;;172.70;20.38;;;10.00;99.90;;;;;;5069676;28;20043;-51
2022/10/14 05:03:55;;;;;;;366.50;27.05;;;9.60;99.90;;;;;;5071390;28;20611;-50
2022/10/14 05:06:20;;;;;;;227.38;22.02;;;11.00;99.90;;;;;;5070363;28;20039;-49
2022/10/14 05:08:46;;;;;;;261.95;21.95;;;10.20;99.90;;;;;;5070594;28;20040;-52
2022/10/14 05:11:12;;;;;;;518.60;33.47;;;9.60;99.90;;;;;;5071107;28;20072;-52
2022/10/14 05:13:38;;;;;;;99.80;17.70;;;9.30;99.90;;;;;;5071207;28;20587;-52
2022/10/14 05:16:04;;;;;;;347.00;26.65;;;9.90;99.90;;;;;;5073331;28;20036;-51
2022/10/14 05:18:30;;;;;;;261.55;25.73;;;9.60;99.90;;;;;;5070645;28;20105;-50
2022/10/14 05:20:59;;;;;;;214.45;23.00;;;9.50;99.90;;;;;;5069218;28;20040;-49
2022/10/14 05:23:25;;;;;;;259.92;23.58;;;9.50;99.90;;;;;;5070060;28;20041;-49
2022/10/14 05:25:50;;;;;;;206.15;21.52;;;9.60;99.90;;;;;;5071494;28;20069;-48
2022/10/14 05:28:17;;;;;;;287.98;24.45;;;9.80;99.90;;;;;;5070779;28;20040;-52
2022/10/14 05:30:43;;;;;;;231.00;20.67;;;9.80;99.90;;;;;;5071349;28;20040;-52
2022/10/14 05:33:09;;;;;;;257.77;24.10;;;11.00;99.90;;;;;;5071936;28;20639;-48
2022/10/14 05:35:36;;;;;;;138.10;18.35;;;9.50;99.90;;;;;;5072362;28;20042;-50
2022/10/14 05:38:02;;;;;;;345.92;23.95;;;9.60;99.90;;;;;;5070558;28;20044;-48
2022/10/14 05:40:28;;;;;;;183.23;19.02;;;9.60;99.90;;;;;;5066803;28;20144;-47
2022/10/14 05:42:53;;;;;;;152.88;18.45;;;9.60;99.90;;;;;;5069611;28;20046;-50
2022/10/14 05:45:19;;;;;;;122.95;16.90;;;10.60;99.90;;;;;;5070554;28;20411;-49
2022/10/14 05:47:45;;;;;;;227.43;20.60;;;9.30;99.90;;;;;;5069851;28;20044;-49
2022/10/14 05:50:11;;;;;;;178.55;19.77;;;9.80;99.90;;;;;;5067298;28;20130;-48
2022/10/14 05:52:38;;;;;;;124.75;17.42;;;10.70;99.90;;;;;;5069232;28;20036;-47
2022/10/14 05:55:05;;;;;;;226.23;20.33;;;11.80;99.90;;;;;;5103823;27;20128;-50
2022/10/14 05:57:32;;;;;;;99.00;14.80;;;9.40;99.90;;;;;;5070487;28;20043;-47
2022/10/14 06:00:01;;;;;;;184.77;17.55;;;11.10;99.90;;;;;;5069209;28;20054;-51
2022/10/14 06:02:26;;;;;;;175.40;16.95;;;10.40;99.90;;;;;;5069220;28;20036;-48
2022/10/14 06:04:52;;;;;;;155.02;15.30;;;9.50;99.90;;;;;;5071195;28;20048;-49
2022/10/14 06:07:18;;;;;;;108.07;14.88;;;9.80;99.90;;;;;;5069757;28;20293;-50
2022/10/14 06:09:44;;;;;;;110.70;15.25;;;9.50;99.90;;;;;;5069625;28;20035;-51
2022/10/14 06:12:10;;;;;;;130.75;17.13;;;10.10;99.90;;;;;;5070434;28;20048;-48
2022/10/14 06:14:37;;;;;;;211.30;19.02;;;10.40;99.90;;;;;;5069685;28;20048;-49
2022/10/14 06:17:04;;;;;;;172.13;19.17;;;10.00;99.90;;;;;;5068932;28;20071;-51
2022/10/14 06:19:30;;;;;;;217.93;21.42;;;9.60;99.90;;;;;;5068533;28;20044;-51
2022/10/14 06:21:56;;;;;;;193.10;19.58;;;9.60;99.90;;;;;;5051216;28;20700;-51
2022/10/14 06:24:22;;;;;;;258.33;21.15;;;11.20;99.90;;;;;;5070642;28;20384;-51
2022/10/14 06:26:48;;;;;;;283.17;22.27;;;9.80;99.90;;;;;;5069575;28;20040;-51
2022/10/14 06:29:14;;;;;;;242.38;22.58;;;9.90;99.90;;;;;;5069782;28;20044;-51
2022/10/14 06:31:40;;;;;;;279.23;21.98;;;10.00;99.90;;;;;;5068457;28;20080;-50
2022/10/14 06:34:06;;;;;;;209.73;19.58;;;9.80;99.90;;;;;;5071381;28;20055;-52
2022/10/14 06:36:32;;;;;;;224.50;20.48;;;11.30;99.90;;;;;;5069345;28;20105;-50
2022/10/14 06:38:58;;;;;;;317.55;23.42;;;10.00;99.90;;;;;;5070168;28;20288;-51
2022/10/14 06:41:23;;;;;;;207.85;19.42;;;10.10;99.90;;;;;;5071166;28;20439;-51
2022/10/14 06:43:49;;;;;;;185.57;17.58;;;9.90;99.90;;;;;;5068814;28;20066;-51
2022/10/14 06:46:15;;;;;;;250.68;19.05;;;10.00;99.90;;;;;;5068433;28;20032;-50
2022/10/14 06:48:41;;;;;;;130.40;16.52;;;9.90;99.90;;;;;;5069925;28;20040;-49
2022/10/14 06:51:06;;;;;;;218.63;21.15;;;10.00;99.90;;;;;;5070006;28;20032;-49
2022/10/14 06:53:32;;;;;;;222.38;20.08;;;11.00;99.90;;;;;;5070537;28;20047;-51
2022/10/14 06:55:59;;;;;;;191.30;21.02;;;10.10;99.90;;;;;;5068976;28;20041;-51
2022/10/14 06:58:25;;;;;;;207.73;21.00;;;9.90;99.90;;;;;;5055947;28;20746;-50
2022/10/14 07:00:51;;;;;;;277.45;21.90;;;10.60;99.90;;;;;;5071828;28;20063;-51
2022/10/14 07:03:16;;;;;;;122.25;18.50;;;10.00;99.90;;;;;;5072356;28;20036;-50
2022/10/14 07:05:42;;;;;;;151.35;19.80;;;11.00;99.90;;;;;;5074219;28;20056;-50
2022/10/14 07:08:08;;;;;;;220.77;23.10;;;11.70;99.90;;;;;;5071605;28;20480;-49
2022/10/14 07:10:34;;;;;;;95.25;19.95;;;10.00;99.90;;;;;;5073228;28;20036;-51
2022/10/14 07:12:59;;;;;;;178.80;22.38;;;11.30;99.90;;;;;;5072974;28;20055;-50
2022/10/14 07:15:25;;;;;;;183.85;23.25;;;10.60;99.90;;;;;;5073697;28;20062;-49
2022/10/14 07:17:51;;;;;;;166.23;24.02;;;11.10;99.90;;;;;;5073029;28;20056;-52
2022/10/14 07:20:16;;;;;;;82.80;21.17;;;12.30;99.90;;;;;;5072878;28;20071;-50
2022/10/14 07:22:42;;;;;;;212.80;25.55;;;11.60;99.90;;;;;;5073384;28;20044;-47
2022/10/14 07:25:08;;;;;;;225.68;26.77;;;11.40;99.90;;;;;;5072555;28;20097;-48
2022/10/14 07:27:34;;;;;;;122.45;24.75;;;10.40;99.90;;;;;;5070913;28;20051;-47
2022/10/14 07:30:00;;;;;;;215.23;28.33;;;11.30;99.90;;;;;;5073196;28;20043;-47
2022/10/14 07:32:26;;;;;;;156.02;26.15;;;10.50;99.90;;;;;;5072081;28;20151;-51
2022/10/14 07:34:52;;;;;;;225.52;29.77;;;11.20;99.90;;;;;;5071639;28;20639;-47
2022/10/14 07:37:18;;;;;;;126.97;26.23;;;10.50;99.90;;;;;;5071373;28;20051;-49
2022/10/14 07:39:43;;;;;;;78.40;24.02;;;11.00;99.90;;;;;;5070447;28;20040;-46
2022/10/14 07:42:09;;;;;;;113.40;25.85;;;10.40;99.90;;;;;;5070543;28;20040;-48
2022/10/14 07:44:38;;;;;;;101.15;26.30;;;11.70;99.90;;;;;;5072064;28;20319;-50
2022/10/14 07:47:04;;;;;;;128.25;27.75;;;10.50;99.90;;;;;;5072200;28;20123;-47
2022/10/14 07:49:31;;;;;;;118.72;27.60;;;10.50;99.90;;;;;;5073594;28;20048;-48
2022/10/14 07:51:56;;;;;;;267.67;34.90;;;10.70;99.90;;;;;;5074402;28;20036;-49
2022/10/14 07:54:24;;;;;;;125.72;27.98;;;10.60;99.90;;;;;;5072948;28;20173;-46
2022/10/14 07:56:50;;;;;;;120.78;29.42;;;10.60;99.90;;;;;;5072281;28;20071;-44
2022/10/14 07:59:18;;;;;;;193.63;32.63;;;10.70;99.90;;;;;;5072786;28;20629;-46
2022/10/14 08:01:48;;;;;;;168.23;32.22;;;10.70;99.90;;;;;;5073800;28;20645;-48
2022/10/14 08:04:14;;;;;;;160.65;31.25;;;10.80;99.90;;;;;;5074352;28;20075;-51
2022/10/14 08:06:40;;;;;;;101.15;27.70;;;10.70;99.90;;;;;;5075127;28;20036;-45
2022/10/14 08:09:07;;;;;;;121.65;28.70;;;10.80;99.90;;;;;;5071260;28;20048;-49
2022/10/14 08:11:33;;;;;;;105.43;28.38;;;12.30;99.90;;;;;;5070701;28;20041;-51
2022/10/14 08:13:59;;;;;;;97.65;26.98;;;10.90;99.90;;;;;;5072083;28;20085;-50
2022/10/14 08:16:28;;;;;;;100.55;27.30;;;10.90;99.90;;;;;;5071401;28;20040;-47
2022/10/14 08:18:58;;;;;;;78.35;26.80;;;10.90;99.90;;;;;;5071884;28;20124;-48
2022/10/14 08:21:25;;;;;;;108.40;28.17;;;11.90;99.90;;;;;;5072589;28;20056;-46
2022/10/14 08:23:51;;;;;;;80.53;26.13;;;11.90;99.90;;;;;;5071796;28;20046;-50
2022/10/14 08:26:30;;;;;;;92.85;27.58;;;11.80;99.90;;;;;;5070647;28;20045;-49
2022/10/14 08:28:57;;;;;;;86.70;26.67;;;11.10;99.90;;;;;;5071079;28;20394;-48
2022/10/14 08:31:23;;;;;;;72.57;25.35;;;11.10;99.90;;;;;;5072165;28;20075;-50
2022/10/14 08:33:49;;;;;;;80.50;25.42;;;11.10;99.90;;;;;;5073079;28;20115;-48
2022/10/14 08:36:16;;;;;;;84.35;26.85;;;11.00;99.90;;;;;;5072637;28;20101;-48
2022/10/14 08:38:42;;;;;;;76.70;25.92;;;11.10;99.90;;;;;;5069963;28;20063;-51
2022/10/14 08:41:32;;;;;;;70.70;26.15;;;11.20;99.90;;;;;;5071197;28;20116;-49
2022/10/14 08:44:18;;;;;;;61.95;25.40;;;11.20;99.90;;;;;;5070851;28;20041;-49
2022/10/14 08:46:51;;;;;;;73.32;26.13;;;11.20;99.90;;;;;;5069285;28;20040;-51
2022/10/14 08:49:22;;;;;;;63.58;25.23;;;11.20;99.90;;;;;;5070964;28;20639;-46
2022/10/14 08:51:58;;;;;;;76.10;27.08;;;13.30;99.90;;;;;;5071232;28;20124;-46
2022/10/14 08:54:31;;;;;;;70.15;27.35;;;11.30;99.90;;;;;;5070055;28;20392;-47
2022/10/14 08:56:58;;;;;;;74.07;29.40;;;11.40;99.90;;;;;;5071859;28;20043;-50
2022/10/14 08:59:25;;;;;;;77.35;30.35;;;11.10;99.90;;;;;;5071288;28;20055;-47
2022/10/14 09:01:56;;;;;;;78.68;28.77;;;11.40;99.90;;;;;;5071246;28;20041;-49
2022/10/14 09:04:22;;;;;;;85.10;30.17;;;12.40;99.90;;;;;;5068926;28;20355;-51
2022/10/14 09:06:51;;;;;;;77.90;28.75;;;12.90;99.90;;;;;;5072292;28;20036;-50
2022/10/14 09:09:40;;;;;;;72.05;28.40;;;12.00;99.90;;;;;;5071784;28;20055;-49
2022/10/14 09:12:12;;;;;;;82.07;29.48;;;11.40;99.90;;;;;;5072949;28;20483;-49
2022/10/14 09:15:02;;;;;;;67.90;30.20;;;12.70;99.90;;;;;;5072206;28;20099;-51
2022/10/14 09:17:35;;;;;;;64.70;27.35;;;11.20;99.90;;;;;;5072992;28;20077;-50
2022/10/14 09:20:23;;;;;;;65.95;28.23;;;11.20;99.90;;;;;;5087533;28;20055;-49
2022/10/14 09:23:10;;;;;;;71.55;29.27;;;11.60;99.90;;;;;;5071943;28;20388;-48
2022/10/14 09:25:44;;;;;;;85.45;30.48;;;11.60;99.90;;;;;;5071907;28;20782;-47
2022/10/14 09:28:10;;;;;;;71.38;30.17;;;11.50;99.90;;;;;;5072158;28;20160;-48
2022/10/14 09:30:39;;;;;;;65.35;30.20;;;11.60;99.90;;;;;;5069781;28;20394;-52
2022/10/14 09:33:05;;;;;;;58.22;28.52;;;11.80;99.90;;;;;;5068613;28;20210;-45
2022/10/14 09:35:39;;;;;;;59.85;27.20;;;11.80;99.90;;;;;;5070180;28;20438;-47
2022/10/14 09:38:06;;;;;;;56.50;27.20;;;11.70;99.90;;;;;;5068540;28;20075;-47
2022/10/14 09:40:40;;;;;;;70.45;30.45;;;11.60;99.90;;;;;;5070357;28;20040;-49
2022/10/14 09:43:09;;;;;;;63.80;29.27;;;12.00;99.90;;;;;;5069967;28;20059;-49
2022/10/14 09:45:53;;;;;;;62.10;28.40;;;11.90;99.90;;;;;;5070204;28;20089;-48
2022/10/14 09:48:28;;;;;;;58.35;27.52;;;11.90;99.90;;;;;;5069381;28;20047;-49
2022/10/14 09:50:56;;;;;;;56.10;26.90;;;12.30;99.90;;;;;;5068952;28;20446;-49
2022/10/14 09:53:45;;;;;;;60.50;28.08;;;11.90;99.90;;;;;;5068863;28;20454;-49
2022/10/14 09:56:12;;;;;;;64.38;29.05;;;12.20;99.90;;;;;;5070674;28;20035;-49
2022/10/14 09:58:52;;;;;;;62.45;28.13;;;12.00;99.90;;;;;;5069893;28;20039;-51
2022/10/14 10:01:23;;;;;;;56.70;26.55;;;11.90;99.90;;;;;;5068085;28;20075;-49
2022/10/14 10:03:51;;;;;;;54.50;26.97;;;12.50;99.90;;;;;;5069213;28;20085;-49
2022/10/14 10:06:24;;;;;;;63.67;27.42;;;12.10;99.90;;;;;;5070681;28;20326;-50
2022/10/14 10:08:53;;;;;;;58.28;27.10;;;12.10;99.90;;;;;;5070327;28;20066;-46
2022/10/14 10:11:34;;;;;;;61.80;26.92;;;12.70;99.90;;;;;;5070450;28;20036;-47
2022/10/14 10:14:28;;;;;;;52.33;24.43;;;12.20;99.90;;;;;;5071814;28;20067;-48
2022/10/14 10:17:06;;;;;;;51.65;24.25;;;12.20;99.90;;;;;;5070765;28;20690;-48
2022/10/14 10:19:38;;;;;;;56.60;26.50;;;12.20;99.90;;;;;;5070520;28;20071;-48
2022/10/14 10:22:21;;;;;;;48.92;24.17;;;12.30;99.90;;;;;;5070655;28;20044;-50
2022/10/14 10:25:08;;;;;;;58.92;26.88;;;12.20;99.90;;;;;;5070585;28;20820;-47
2022/10/14 10:27:44;;;;;;;57.70;24.77;;;12.30;99.90;;;;;;5071614;28;20118;-45
2022/10/14 10:30:23;;;;;;;58.70;25.65;;;12.60;99.90;;;;;;5068392;28;20079;-48
2022/10/14 10:33:18;;;;;;;49.30;23.80;;;12.50;99.90;;;;;;5070108;28;20055;-47
2022/10/14 10:36:21;;;;;;;40.83;21.10;;;12.50;99.90;;;;;;5071836;28;20044;-50
2022/10/14 10:39:04;;;;;;;40.70;20.25;;;12.50;99.90;;;;;;5068381;28;20408;-48
2022/10/14 10:41:42;;;;;;;39.22;20.38;;;12.50;99.90;;;;;;5067974;28;20696;-49
2022/10/14 10:44:21;;;;;;;35.60;19.27;;;12.40;99.90;;;;;;5067814;28;20071;-46
2022/10/14 10:47:02;;;;;;;42.97;21.25;;;12.70;99.90;;;;;;5068557;28;20105;-47
2022/10/14 10:49:28;;;;;;;48.88;20.45;;;12.60;99.90;;;;;;5068205;28;20083;-49
2022/10/14 10:52:07;;;;;;;38.95;20.23;;;12.40;99.90;;;;;;5068306;28;20155;-50
2022/10/14 10:54:36;;;;;;;34.72;17.77;;;12.50;99.90;;;;;;5067972;28;20043;-50
2022/10/14 10:57:31;;;;;;;34.75;17.23;;;12.50;99.90;;;;;;5068663;28;20836;-46
2022/10/14 10:59:57;;;;;;;30.02;15.63;;;12.50;99.90;;;;;;5066809;28;20048;-50
2022/10/14 11:02:50;;;;;;;30.80;15.52;;;12.50;99.90;;;;;;5067543;28;21103;-49
2022/10/14 11:05:34;;;;;;;33.30;16.90;;;12.60;99.90;;;;;;5066545;28;20075;-48
2022/10/14 11:14:28;;;;;;;27.33;12.88;;;12.90;99.90;;;;;;5067390;28;20048;-50
2022/10/14 11:17:08;;;;;;;28.02;13.02;;;12.90;99.90;;;;;;5069524;28;20071;-47
2022/10/14 11:20:09;;;;;;;22.02;11.60;;;12.90;99.90;;;;;;5066876;28;20043;-50
2022/10/14 11:23:06;;;;;;;23.08;12.13;;;12.90;99.90;;;;;;5069561;28;20052;-51
2022/10/14 11:25:48;;;;;;;23.65;11.75;;;12.90;99.90;;;;;;5067959;28;20119;-45
2022/10/14 11:28:25;;;;;;;17.65;10.07;;;12.90;99.90;;;;;;5069248;28;20123;-45
2022/10/14 11:31:24;;;;;;;25.38;11.63;;;13.10;99.90;;;;;;5068492;28;20779;-46
2022/10/14 11:34:05;;;;;;;22.75;11.52;;;13.10;99.90;;;;;;5053701;28;20036;-48
2022/10/14 11:36:54;;;;;;;19.33;10.05;;;13.30;99.90;;;;;;5069620;28;20044;-50
2022/10/14 11:39:47;;;;;;;15.73;9.02;;;13.30;99.90;;;;;;5068943;28;20135;-47
2022/10/14 11:42:43;;;;;;;16.95;8.90;;;13.30;99.90;;;;;;5068696;28;20044;-50
2022/10/14 11:45:24;;;;;;;15.15;8.13;;;13.20;99.90;;;;;;5050334;28;20138;-50
2022/10/14 11:47:51;;;;;;;15.63;8.32;;;13.20;99.90;;;;;;5072871;28;20040;-47
2022/10/14 11:50:24;;;;;;;18.02;9.23;;;13.10;99.90;;;;;;5056269;28;20504;-51
2022/10/14 11:52:56;;;;;;;;;;;13.20;99.90;;;;;;5072548;28;20472;-50
2022/10/14 11:55:28;;;;;;;18.02;9.15;;;13.20;99.90;;;;;;5071893;28;20219;-48
2022/10/14 11:57:58;;;;;;;13.77;7.67;;;13.10;99.90;;;;;;5072619;28;20040;-46
2022/10/14 12:00:29;;;;;;;12.88;7.88;;;13.10;99.90;;;;;;5070871;28;20519;-45
2022/10/14 12:03:09;;;;;;;14.65;8.05;;;13.10;99.90;;;;;;5070130;28;20508;-48
2022/10/14 12:06:11;;;;;;;15.13;7.93;;;13.60;99.90;;;;;;5069622;28;21454;-47
2022/10/14 12:08:54;;;;;;;14.77;8.05;;;13.30;99.90;;;;;;5031176;28;20048;-48
2022/10/14 12:11:28;;;;;;;;;;;13.10;99.90;;;;;;5072512;28;20500;-46
2022/10/14 12:14:21;;;;;;;16.90;8.95;;;13.00;99.90;;;;;;5070381;28;20005;-50
2022/10/14 12:16:48;;;;;;;17.70;9.43;;;13.00;99.90;;;;;;5070133;28;20058;-47
2022/10/14 12:19:22;;;;;;;15.48;8.73;;;14.80;99.90;;;;;;5071121;28;20050;-49
2022/10/14 12:22:05;;;;;;;18.83;8.88;;;12.90;99.90;;;;;;5071747;28;20764;-47
2022/10/14 12:24:38;;;;;;;20.05;9.43;;;13.90;99.90;;;;;;5070315;28;20048;-48
2022/10/14 12:27:09;;;;;;;17.33;9.13;;;13.10;99.90;;;;;;5070263;28;20097;-49
2022/10/14 12:29:46;;;;;;;16.15;8.55;;;13.00;99.90;;;;;;5069480;28;20074;-49
2022/10/14 12:32:23;;;;;;;16.38;9.25;;;14.90;99.90;;;;;;5072274;28;20044;-46
2022/10/14 12:34:56;;;;;;;20.33;9.82;;;13.10;99.90;;;;;;5070507;28;20054;-46
2022/10/14 12:37:30;;;;;;;16.48;8.50;;;13.10;99.90;;;;;;5071073;28;20495;-50
2022/10/14 12:40:02;;;;;;;21.08;9.32;;;13.10;99.90;;;;;;5071077;28;20040;-46
2022/10/14 12:42:33;;;;;;;;;;;13.00;99.90;;;;;;5072459;28;20595;-48
2022/10/14 12:45:01;;;;;;;14.85;8.07;;;13.10;99.90;;;;;;5071671;28;20377;-49
2022/10/14 12:47:35;;;;;;;15.40;8.40;;;13.10;99.90;;;;;;5071229;28;20766;-48
2022/10/14 12:50:26;;;;;;;18.27;8.45;;;12.90;99.90;;;;;;5071649;28;20480;-50
2022/10/14 12:52:59;;;;;;;16.00;8.18;;;13.00;99.90;;;;;;5069380;28;20036;-48